createdAt,value
2019-05-02T00:00:14.450Z,22.09
2019-05-02T00:02:16.052Z,22.04
2019-05-02T00:04:20.112Z,22.03
2019-05-02T00:06:19.335Z,21.98
2019-05-02T00:08:20.948Z,21.97
2019-05-02T00:10:24.971Z,21.98
2019-05-02T00:12:24.211Z,22.01
2019-05-02T00:14:25.820Z,22.03
2019-05-02T00:16:27.426Z,22.04
2019-05-02T00:18:31.969Z,22.04
2019-05-02T00:20:30.658Z,22.04
2019-05-02T00:22:32.294Z,22.02
2019-05-02T00:24:38.789Z,22.02
2019-05-02T00:26:35.562Z,22.05
2019-05-02T00:28:37.184Z,22.08
2019-05-02T00:30:38.772Z,22.07
2019-05-02T00:32:40.495Z,22.06
2019-05-02T00:34:42.080Z,22.03
2019-05-02T00:36:43.678Z,22.01
2019-05-02T00:38:45.319Z,21.95
2019-05-02T00:40:46.972Z,21.94
2019-05-02T00:42:48.565Z,21.97
2019-05-02T00:44:50.160Z,21.97
2019-05-02T00:46:51.772Z,22.01
2019-05-02T00:48:54.296Z,21.97
2019-05-02T00:50:55.055Z,21.93
2019-05-02T00:52:56.651Z,21.90
2019-05-02T00:54:58.669Z,21.86
2019-05-02T00:56:59.880Z,21.85
2019-05-02T00:59:02.270Z,21.90
2019-05-02T01:01:15.056Z,21.94
2019-05-02T01:03:17.945Z,21.91
2019-05-02T01:05:18.317Z,21.88
2019-05-02T01:07:20.477Z,21.86
2019-05-02T01:09:21.610Z,21.81
2019-05-02T01:11:23.196Z,21.77
2019-05-02T01:13:24.808Z,21.75
2019-05-02T01:15:26.382Z,21.78
2019-05-02T01:17:30.901Z,21.82
2019-05-02T01:19:29.647Z,21.84
2019-05-02T01:21:34.002Z,21.84
2019-05-02T01:23:32.914Z,21.82
2019-05-02T01:25:34.556Z,21.79
2019-05-02T01:27:52.969Z,21.76
2019-05-02T01:30:01.686Z,21.85
2019-05-02T01:31:59.215Z,21.92
2019-05-02T01:34:03.776Z,21.96
2019-05-02T01:36:08.865Z,22.00
2019-05-02T01:38:16.067Z,22.01
2019-05-02T01:40:18.893Z,22.03
2019-05-02T01:42:19.329Z,22.03
2019-05-02T01:44:20.932Z,21.98
2019-05-02T01:46:24.123Z,22.00
2019-05-02T01:48:24.168Z,21.97
2019-05-02T01:50:28.884Z,21.96
2019-05-02T01:52:27.354Z,21.94
2019-05-02T01:54:28.956Z,21.95
2019-05-02T01:56:33.231Z,21.99
2019-05-02T01:58:32.177Z,22.12
2019-05-02T02:00:33.750Z,22.22
2019-05-02T02:02:35.392Z,22.31
2019-05-02T02:04:36.971Z,22.38
2019-05-02T02:06:42.853Z,22.40
2019-05-02T02:08:40.412Z,22.46
2019-05-02T02:10:43.880Z,22.45
2019-05-02T02:13:02.438Z,22.45
2019-05-02T02:14:48.116Z,22.45
2019-05-02T02:16:47.265Z,22.46
2019-05-02T02:18:51.460Z,22.47
2019-05-02T02:20:58.711Z,22.42
2019-05-02T02:23:00.286Z,22.40
2019-05-02T02:25:16.792Z,22.35
2019-05-02T02:27:20.033Z,22.27
2019-05-02T02:29:20.030Z,22.42
2019-05-02T02:31:21.640Z,22.37
2019-05-02T02:33:23.226Z,22.37
2019-05-02T02:35:24.869Z,22.30
2019-05-02T02:37:26.481Z,22.29
2019-05-02T02:39:28.129Z,22.25
2019-05-02T02:41:29.746Z,22.27
2019-05-02T02:43:34.668Z,22.18
2019-05-02T02:45:38.489Z,22.28
2019-05-02T02:47:40.131Z,22.24
2019-05-02T02:49:41.740Z,22.23
2019-05-02T02:51:43.346Z,22.27
2019-05-02T02:53:44.956Z,22.25
2019-05-02T02:55:46.589Z,22.24
2019-05-02T02:57:48.197Z,22.22
2019-05-02T02:59:49.796Z,22.23
2019-05-02T03:01:51.416Z,22.21
2019-05-02T03:03:53.020Z,22.19
2019-05-02T03:05:58.605Z,22.17
2019-05-02T03:07:59.417Z,22.16
2019-05-02T03:09:59.551Z,22.16
2019-05-02T03:12:05.221Z,22.15
2019-05-02T03:14:09.621Z,22.15
2019-05-02T03:16:10.709Z,22.13
2019-05-02T03:18:12.319Z,22.13
2019-05-02T03:20:13.918Z,22.15
2019-05-02T03:22:15.532Z,22.17
2019-05-02T03:24:17.141Z,22.16
2019-05-02T03:26:18.737Z,22.17
2019-05-02T03:28:21.000Z,22.16
2019-05-02T03:30:33.011Z,22.17
2019-05-02T03:32:33.074Z,22.16
2019-05-02T03:34:45.304Z,22.17
2019-05-02T03:36:30.772Z,22.12
2019-05-02T03:38:32.420Z,22.13
2019-05-02T03:40:32.343Z,22.14
2019-05-02T03:42:43.891Z,22.14
2019-05-02T03:44:34.004Z,22.11
2019-05-02T03:46:35.593Z,22.13
2019-05-02T03:48:37.206Z,22.14
2019-05-02T03:50:38.819Z,22.16
2019-05-02T03:52:43.357Z,22.20
2019-05-02T03:54:50.305Z,22.19
2019-05-02T03:56:44.842Z,22.18
2019-05-02T03:58:48.762Z,22.17
2019-05-02T04:00:47.011Z,22.14
2019-05-02T04:02:59.577Z,22.14
2019-05-02T04:04:54.080Z,22.16
2019-05-02T04:06:55.092Z,22.16
2019-05-02T04:08:59.370Z,21.93
2019-05-02T04:10:59.351Z,22.17
2019-05-02T04:12:58.461Z,22.16
2019-05-02T04:14:58.540Z,22.16
2019-05-02T04:17:00.167Z,22.13
2019-05-02T04:19:01.755Z,22.11
2019-05-02T04:21:03.365Z,22.08
2019-05-02T04:23:04.958Z,22.05
2019-05-02T04:25:06.641Z,22.04
2019-05-02T04:27:08.217Z,22.03
2019-05-02T04:29:09.829Z,22.03
2019-05-02T04:31:11.444Z,22.05
2019-05-02T04:33:13.060Z,22.04
2019-05-02T04:35:14.640Z,22.02
2019-05-02T04:37:16.229Z,22.02
2019-05-02T04:39:21.482Z,22.03
2019-05-02T04:41:28.827Z,22.09
2019-05-02T04:43:21.240Z,22.14
2019-05-02T04:45:29.252Z,22.14
2019-05-02T04:47:24.501Z,22.13
2019-05-02T04:49:29.746Z,22.12
2019-05-02T04:51:31.799Z,22.12
2019-05-02T04:53:36.726Z,22.12
2019-05-02T04:55:33.356Z,22.12
2019-05-02T04:57:36.855Z,21.86
2019-05-02T04:59:34.382Z,22.14
2019-05-02T05:01:46.296Z,22.14
2019-05-02T05:03:37.735Z,22.13
2019-05-02T05:05:40.320Z,22.17
2019-05-02T05:07:45.729Z,22.20
2019-05-02T05:09:50.120Z,22.19
2019-05-02T05:11:44.238Z,22.21
2019-05-02T05:13:47.761Z,22.22
2019-05-02T05:15:51.300Z,22.22
2019-05-02T05:17:50.116Z,22.19
2019-05-02T05:19:50.808Z,22.17
2019-05-02T05:21:56.713Z,22.16
2019-05-02T05:24:08.914Z,22.19
2019-05-02T05:26:10.500Z,22.14
2019-05-02T05:28:12.124Z,22.20
2019-05-02T05:30:15.642Z,22.20
2019-05-02T05:32:15.353Z,22.09
2019-05-02T05:34:17.377Z,22.25
2019-05-02T05:36:20.047Z,22.29
2019-05-02T05:38:22.905Z,22.28
2019-05-02T05:40:22.690Z,22.28
2019-05-02T05:42:31.870Z,22.29
2019-05-02T05:44:28.688Z,22.33
2019-05-02T05:46:28.016Z,22.28
2019-05-02T05:48:32.175Z,22.25
2019-05-02T05:50:32.146Z,22.22
2019-05-02T05:52:33.186Z,22.23
2019-05-02T05:54:40.459Z,22.24
2019-05-02T05:56:39.699Z,22.26
2019-05-02T05:58:39.956Z,22.26
2019-05-02T06:00:38.681Z,22.31
2019-05-02T06:02:53.023Z,22.33
2019-05-02T06:04:41.964Z,22.39
2019-05-02T06:06:43.572Z,22.40
2019-05-02T06:08:49.295Z,22.41
2019-05-02T06:10:46.838Z,22.42
2019-05-02T06:12:48.448Z,22.42
2019-05-02T06:14:50.092Z,22.40
2019-05-02T06:16:53.048Z,22.37
2019-05-02T06:18:53.320Z,22.36
2019-05-02T06:20:54.924Z,22.32
2019-05-02T06:23:00.102Z,22.47
2019-05-02T06:24:58.175Z,22.64
2019-05-02T06:26:59.755Z,22.52
2019-05-02T06:29:01.360Z,22.36
2019-05-02T06:31:07.364Z,22.26
2019-05-02T06:33:04.621Z,22.14
2019-05-02T06:35:06.259Z,22.07
2019-05-02T06:37:08.324Z,22.05
2019-05-02T06:39:09.552Z,22.01
2019-05-02T06:41:11.118Z,22.01
2019-05-02T06:43:12.707Z,21.98
2019-05-02T06:45:14.339Z,21.93
2019-05-02T06:47:15.957Z,21.94
2019-05-02T06:49:17.604Z,21.92
2019-05-02T06:51:20.782Z,21.93
2019-05-02T06:53:20.839Z,21.94
2019-05-02T06:55:22.488Z,21.93
2019-05-02T06:57:25.790Z,21.93
2019-05-02T06:59:25.750Z,21.92
2019-05-02T07:01:27.323Z,21.89
2019-05-02T07:03:28.908Z,21.88
2019-05-02T07:05:30.632Z,21.85
2019-05-02T07:07:36.870Z,21.84
2019-05-02T07:09:40.956Z,21.85
2019-05-02T07:11:38.949Z,21.86
2019-05-02T07:13:42.183Z,21.88
2019-05-02T07:15:44.656Z,21.90
2019-05-02T07:17:46.244Z,21.91
2019-05-02T07:19:48.452Z,21.93
2019-05-02T07:21:53.044Z,21.94
2019-05-02T07:23:53.822Z,21.92
2019-05-02T07:25:53.346Z,21.91
2019-05-02T07:27:54.932Z,21.88
2019-05-02T07:29:57.759Z,21.83
2019-05-02T07:31:58.158Z,21.86
2019-05-02T07:33:59.766Z,21.90
2019-05-02T07:36:01.490Z,21.93
2019-05-02T07:38:03.002Z,21.98
2019-05-02T07:40:04.620Z,22.04
2019-05-02T07:42:07.872Z,22.13
2019-05-02T07:44:07.856Z,22.22
2019-05-02T07:46:09.464Z,22.26
2019-05-02T07:48:12.701Z,22.28
2019-05-02T07:50:12.758Z,22.28
2019-05-02T07:52:14.380Z,22.30
2019-05-02T07:54:19.310Z,22.31
2019-05-02T07:56:18.880Z,22.39
2019-05-02T07:58:19.282Z,22.60
2019-05-02T08:00:20.886Z,23.03
2019-05-02T08:02:25.101Z,23.31
2019-05-02T08:04:24.176Z,23.43
2019-05-02T08:06:35.128Z,23.43
2019-05-02T08:08:29.930Z,23.63
2019-05-02T08:10:29.130Z,23.58
2019-05-02T08:12:30.769Z,23.53
2019-05-02T08:14:34.624Z,23.32
2019-05-02T08:16:34.064Z,23.08
2019-05-02T08:18:35.677Z,23.28
2019-05-02T08:20:37.292Z,23.47
2019-05-02T08:22:38.896Z,23.55
2019-05-02T08:24:40.480Z,23.54
2019-05-02T08:26:47.631Z,23.66
2019-05-02T08:28:52.034Z,23.73
2019-05-02T08:30:51.825Z,23.78
2019-05-02T08:32:53.448Z,23.71
2019-05-02T08:34:55.061Z,23.54
2019-05-02T08:36:58.803Z,23.46
2019-05-02T08:38:58.295Z,23.27
2019-05-02T08:40:59.881Z,23.11
2019-05-02T08:43:03.525Z,23.16
2019-05-02T08:45:03.294Z,23.55
2019-05-02T08:47:17.678Z,23.65
2019-05-02T08:49:06.497Z,23.29
2019-05-02T08:51:08.070Z,23.04
2019-05-02T08:53:14.117Z,22.97
2019-05-02T08:55:11.356Z,23.16
2019-05-02T08:57:12.948Z,23.47
2019-05-02T08:59:14.563Z,23.71
2019-05-02T09:01:16.188Z,23.56
2019-05-02T09:03:17.782Z,23.49
2019-05-02T09:05:19.362Z,23.42
2019-05-02T09:07:20.981Z,23.68
2019-05-02T09:09:27.466Z,23.40
2019-05-02T09:11:24.270Z,23.21
2019-05-02T09:13:29.140Z,23.22
2019-05-02T09:15:27.516Z,23.28
2019-05-02T09:17:37.779Z,23.50
2019-05-02T09:19:34.559Z,23.44
2019-05-02T09:21:35.959Z,23.56
2019-05-02T09:23:37.076Z,23.60
2019-05-02T09:25:35.725Z,23.52
2019-05-02T09:27:37.312Z,23.59
2019-05-02T09:29:44.501Z,23.73
2019-05-02T09:31:42.328Z,23.77
2019-05-02T09:33:46.665Z,23.78
2019-05-02T09:35:43.784Z,23.83
2019-05-02T09:37:45.383Z,23.87
2019-05-02T09:39:46.996Z,23.89
2019-05-02T09:41:48.616Z,23.96
2019-05-02T09:43:52.032Z,23.90
2019-05-02T09:45:52.123Z,23.81
2019-05-02T09:48:01.486Z,23.92
2019-05-02T09:50:02.771Z,23.99
2019-05-02T09:52:03.330Z,23.66
2019-05-02T09:54:06.368Z,23.43
2019-05-02T09:56:05.903Z,23.31
2019-05-02T09:58:10.359Z,23.23
2019-05-02T10:00:09.192Z,23.16
2019-05-02T10:02:12.572Z,23.11
2019-05-02T10:04:12.569Z,23.08
2019-05-02T10:06:18.203Z,23.02
2019-05-02T10:08:15.879Z,23.05
2019-05-02T10:10:17.488Z,23.03
2019-05-02T10:12:19.085Z,23.04
2019-05-02T10:14:22.648Z,23.03
2019-05-02T10:16:23.614Z,23.02
2019-05-02T10:18:28.288Z,23.01
2019-05-02T10:20:34.185Z,23.02
2019-05-02T10:22:32.281Z,22.79
2019-05-02T10:24:29.013Z,23.03
2019-05-02T10:26:32.834Z,23.18
2019-05-02T10:28:32.312Z,23.23
2019-05-02T10:30:36.049Z,23.03
2019-05-02T10:32:35.591Z,23.03
2019-05-02T10:34:37.196Z,23.03
2019-05-02T10:36:38.788Z,23.03
2019-05-02T10:38:42.527Z,22.97
2019-05-02T10:40:42.490Z,22.97
2019-05-02T10:42:43.713Z,23.25
2019-05-02T10:44:45.303Z,23.28
2019-05-02T10:46:52.246Z,23.18
2019-05-02T10:49:08.867Z,23.09
2019-05-02T10:51:16.110Z,23.05
2019-05-02T10:53:17.720Z,23.03
2019-05-02T10:55:21.684Z,23.01
2019-05-02T10:57:21.945Z,23.01
2019-05-02T10:59:22.834Z,22.98
2019-05-02T11:01:24.442Z,22.98
2019-05-02T11:03:28.597Z,22.98
2019-05-02T11:05:31.553Z,22.96
2019-05-02T11:07:32.697Z,22.96
2019-05-02T11:09:33.493Z,22.96
2019-05-02T11:11:35.080Z,22.93
2019-05-02T11:13:55.028Z,22.94
2019-05-02T11:15:57.776Z,22.94
2019-05-02T11:17:59.399Z,22.91
2019-05-02T11:20:04.641Z,22.91
2019-05-02T11:22:06.232Z,22.97
2019-05-02T11:24:07.856Z,22.78
2019-05-02T11:26:09.442Z,22.63
2019-05-02T11:28:12.418Z,22.87
2019-05-02T11:30:16.717Z,22.75
2019-05-02T11:32:14.431Z,22.71
2019-05-02T11:34:16.052Z,22.74
2019-05-02T11:36:17.660Z,22.73
2019-05-02T11:38:36.261Z,22.69
2019-05-02T11:40:22.712Z,22.60
2019-05-02T11:42:27.115Z,22.51
2019-05-02T11:44:24.245Z,22.57
2019-05-02T11:46:25.888Z,22.55
2019-05-02T11:48:27.504Z,22.51
2019-05-02T11:50:31.960Z,22.47
2019-05-02T11:52:35.677Z,22.43
2019-05-02T11:54:32.435Z,22.43
2019-05-02T11:56:34.017Z,22.40
2019-05-02T11:58:35.619Z,22.44
2019-05-02T12:00:39.702Z,22.47
2019-05-02T12:02:58.041Z,22.42
2019-05-02T12:04:56.282Z,22.38
2019-05-02T12:07:01.359Z,22.42
2019-05-02T12:08:59.537Z,22.53
2019-05-02T12:11:01.959Z,22.53
2019-05-02T12:13:06.704Z,22.64
2019-05-02T12:15:04.490Z,22.68
2019-05-02T12:17:06.159Z,22.68
2019-05-02T12:19:11.384Z,22.69
2019-05-02T12:21:09.392Z,22.59
2019-05-02T12:23:12.790Z,22.45
2019-05-02T12:25:12.820Z,22.38
2019-05-02T12:27:14.332Z,22.54
2019-05-02T12:29:15.920Z,22.59
2019-05-02T12:31:17.486Z,22.47
2019-05-02T12:33:19.109Z,22.56
2019-05-02T12:35:22.422Z,22.48
2019-05-02T12:37:22.332Z,22.36
2019-05-02T12:39:23.935Z,22.38
2019-05-02T12:41:25.541Z,22.31
2019-05-02T12:43:27.123Z,22.27
2019-05-02T12:45:28.730Z,22.28
2019-05-02T12:47:31.923Z,22.23
2019-05-02T12:49:32.446Z,22.20
2019-05-02T12:51:33.651Z,22.27
2019-05-02T12:53:35.236Z,22.26
2019-05-02T12:55:36.844Z,22.25
2019-05-02T12:57:38.455Z,22.15
2019-05-02T12:59:41.667Z,22.09
2019-05-02T13:01:42.242Z,22.05
2019-05-02T13:03:44.189Z,22.00
2019-05-02T13:05:45.804Z,21.98
2019-05-02T13:07:50.507Z,21.95
2019-05-02T13:09:49.056Z,21.93
2019-05-02T13:11:52.398Z,21.92
2019-05-02T13:13:53.866Z,21.93
2019-05-02T13:15:55.566Z,21.94
2019-05-02T13:17:57.092Z,21.98
2019-05-02T13:20:03.149Z,22.06
2019-05-02T13:22:15.242Z,22.08
2019-05-02T13:24:25.909Z,22.11
2019-05-02T13:26:27.092Z,22.10
2019-05-02T13:28:26.012Z,22.10
2019-05-02T13:30:32.843Z,22.08
2019-05-02T13:32:32.153Z,22.07
2019-05-02T13:34:37.509Z,22.10
2019-05-02T13:36:39.102Z,22.06
2019-05-02T13:38:42.343Z,22.02
2019-05-02T13:40:42.355Z,21.99
2019-05-02T13:42:43.949Z,21.98
2019-05-02T13:44:52.666Z,21.97
2019-05-02T13:46:53.582Z,21.99
2019-05-02T13:48:54.632Z,21.94
2019-05-02T13:50:56.456Z,21.93
2019-05-02T13:52:58.187Z,21.93
2019-05-02T13:55:01.227Z,21.92
2019-05-02T13:57:03.156Z,21.89
2019-05-02T13:59:03.106Z,21.86
2019-05-02T14:01:05.196Z,21.84
2019-05-02T14:03:06.835Z,21.81
2019-05-02T14:05:08.496Z,21.63
2019-05-02T14:07:13.255Z,21.75
2019-05-02T14:09:22.488Z,21.72
2019-05-02T14:11:28.903Z,21.71
2019-05-02T14:13:31.629Z,21.70
2019-05-02T14:15:34.115Z,21.68
2019-05-02T14:17:35.765Z,21.66
2019-05-02T14:19:37.371Z,21.63
2019-05-02T14:21:39.048Z,21.59
2019-05-02T14:23:42.023Z,21.59
2019-05-02T14:25:42.691Z,21.57
2019-05-02T14:27:46.931Z,21.58
2019-05-02T14:29:45.724Z,21.65
2019-05-02T14:31:47.368Z,21.69
2019-05-02T14:33:54.566Z,21.74
2019-05-02T14:35:56.192Z,21.74
2019-05-02T14:38:03.524Z,21.74
2019-05-02T14:40:05.937Z,21.78
2019-05-02T14:42:07.526Z,21.78
2019-05-02T14:44:09.115Z,21.77
2019-05-02T14:46:12.493Z,21.74
2019-05-02T14:48:21.081Z,21.72
2019-05-02T14:50:23.668Z,21.75
2019-05-02T14:52:16.040Z,21.74
2019-05-02T14:54:17.628Z,21.70
2019-05-02T14:56:30.038Z,21.65
2019-05-02T14:58:32.457Z,21.61
2019-05-02T15:00:39.359Z,21.56
2019-05-02T15:02:47.239Z,21.52
2019-05-02T15:04:44.566Z,21.49
2019-05-02T15:06:47.413Z,21.44
2019-05-02T15:08:45.920Z,21.15
2019-05-02T15:10:52.985Z,21.42
2019-05-02T15:12:53.489Z,21.46
2019-05-02T15:14:57.413Z,21.51
2019-05-02T15:16:56.609Z,21.53
2019-05-02T15:18:57.010Z,21.52
2019-05-02T15:20:55.828Z,21.56
2019-05-02T15:22:57.485Z,21.61
2019-05-02T15:24:59.100Z,21.67
2019-05-02T15:27:05.450Z,21.69
2019-05-02T15:29:02.400Z,21.70
2019-05-02T15:31:06.537Z,21.69
2019-05-02T15:33:09.711Z,21.68
2019-05-02T15:35:17.725Z,21.67
2019-05-02T15:37:22.193Z,21.62
2019-05-02T15:41:21.960Z,21.55
2019-05-02T15:43:23.556Z,21.53
2019-05-02T15:45:25.137Z,21.53
2019-05-02T15:47:26.720Z,21.56
2019-05-02T15:49:28.330Z,21.57
2019-05-02T15:51:29.915Z,21.59
2019-05-02T15:53:34.206Z,21.59
2019-05-02T15:55:39.557Z,21.63
2019-05-02T15:57:43.084Z,21.65
2019-05-02T15:59:43.226Z,21.65
2019-05-02T16:01:47.749Z,21.65
2019-05-02T16:03:47.285Z,21.61
2019-05-02T16:05:48.888Z,21.55
2019-05-02T16:07:52.255Z,21.52
2019-05-02T16:09:59.430Z,21.49
2019-05-02T16:11:56.960Z,21.41
2019-05-02T16:13:56.375Z,21.35
2019-05-02T16:16:02.252Z,21.36
2019-05-02T16:18:01.935Z,21.32
2019-05-02T16:20:07.652Z,21.28
2019-05-02T16:22:06.893Z,21.24
2019-05-02T16:24:14.690Z,21.22
2019-05-02T16:26:12.830Z,21.19
2019-05-02T16:28:14.452Z,21.17
2019-05-02T16:30:16.060Z,21.19
2019-05-02T16:32:21.988Z,21.19
2019-05-02T16:34:27.456Z,21.21
2019-05-02T16:36:32.978Z,21.22
2019-05-02T16:38:26.724Z,21.22
2019-05-02T16:40:30.238Z,21.19
2019-05-02T16:42:29.620Z,21.17
2019-05-02T16:44:32.247Z,21.12
2019-05-02T16:46:32.864Z,21.14
2019-05-02T16:48:37.578Z,21.15
2019-05-02T16:50:36.996Z,21.19
2019-05-02T16:52:38.189Z,21.21
2019-05-02T16:54:41.713Z,21.19
2019-05-02T16:56:42.314Z,21.17
2019-05-02T16:58:47.057Z,21.14
2019-05-02T17:00:45.606Z,21.13
2019-05-02T17:02:46.489Z,21.10
2019-05-02T17:04:47.751Z,21.07
2019-05-02T17:06:49.372Z,20.79
2019-05-02T17:08:57.403Z,21.04
2019-05-02T17:10:56.747Z,21.05
2019-05-02T17:12:57.675Z,21.07
2019-05-02T17:15:01.835Z,21.09
2019-05-02T17:17:03.414Z,21.12
2019-05-02T17:19:04.982Z,21.04
2019-05-02T17:21:06.596Z,21.20
2019-05-02T17:23:08.192Z,21.23
2019-05-02T17:25:09.816Z,21.28
2019-05-02T17:27:12.973Z,21.29
2019-05-02T17:29:16.517Z,21.31
2019-05-02T17:31:19.563Z,21.32
2019-05-02T17:33:16.567Z,21.31
2019-05-02T17:35:17.980Z,21.29
2019-05-02T17:37:21.613Z,21.28
2019-05-02T17:39:22.326Z,21.11
2019-05-02T17:41:23.060Z,21.18
2019-05-02T17:43:24.671Z,21.14
2019-05-02T17:45:26.261Z,21.10
2019-05-02T17:47:30.906Z,21.09
2019-05-02T17:49:31.813Z,21.05
2019-05-02T17:51:37.547Z,21.06
2019-05-02T17:53:41.313Z,21.11
2019-05-02T17:55:40.235Z,21.14
2019-05-02T17:57:38.696Z,21.17
2019-05-02T17:59:42.058Z,21.19
2019-05-02T18:01:42.041Z,21.26
2019-05-02T18:03:43.672Z,21.27
2019-05-02T18:05:45.261Z,21.28
2019-05-02T18:07:46.876Z,21.31
2019-05-02T18:09:48.511Z,21.32
2019-05-02T18:11:51.693Z,21.31
2019-05-02T18:13:51.839Z,21.32
2019-05-02T18:15:53.583Z,21.31
2019-05-02T18:17:59.911Z,21.28
2019-05-02T18:20:01.091Z,21.24
2019-05-02T18:22:03.565Z,21.19
2019-05-02T18:24:02.532Z,21.16
2019-05-02T18:26:05.017Z,21.11
2019-05-02T18:28:03.341Z,21.07
2019-05-02T18:30:04.932Z,20.76
2019-05-02T18:32:06.499Z,21.02
2019-05-02T18:34:12.560Z,20.99
2019-05-02T18:36:09.733Z,20.95
2019-05-02T18:38:11.324Z,20.94
2019-05-02T18:40:12.914Z,20.98
2019-05-02T18:42:16.656Z,21.03
2019-05-02T18:44:17.363Z,21.08
2019-05-02T18:46:19.953Z,21.17
2019-05-02T18:48:21.677Z,21.22
2019-05-02T18:50:22.391Z,21.28
2019-05-02T18:52:35.065Z,21.32
2019-05-02T18:54:24.560Z,21.34
2019-05-02T18:56:26.146Z,21.36
2019-05-02T18:58:27.728Z,21.41
2019-05-02T19:00:37.640Z,21.44
2019-05-02T19:02:32.700Z,21.37
2019-05-02T19:04:38.152Z,21.36
2019-05-02T19:06:36.204Z,21.37
2019-05-02T19:08:45.245Z,21.33
2019-05-02T19:10:42.511Z,21.32
2019-05-02T19:12:39.238Z,21.31
2019-05-02T19:14:41.990Z,21.35
2019-05-02T19:16:42.687Z,21.35
2019-05-02T19:18:44.146Z,21.37
2019-05-02T19:20:52.532Z,21.36
2019-05-02T19:22:51.881Z,21.41
2019-05-02T19:24:49.713Z,21.42
2019-05-02T19:26:53.267Z,21.42
2019-05-02T19:29:08.401Z,21.39
2019-05-02T19:31:07.030Z,21.36
2019-05-02T19:33:08.161Z,21.34
2019-05-02T19:35:09.748Z,21.36
2019-05-02T19:37:12.125Z,21.11
2019-05-02T19:39:13.118Z,21.36
2019-05-02T19:41:14.740Z,21.38
2019-05-02T19:43:16.358Z,21.33
2019-05-02T19:45:17.948Z,21.29
2019-05-02T19:47:19.572Z,21.27
2019-05-02T19:49:22.105Z,21.27
2019-05-02T19:51:22.797Z,21.31
2019-05-02T19:53:24.422Z,21.34
2019-05-02T19:55:27.464Z,21.36
2019-05-02T19:57:27.674Z,21.39
2019-05-02T19:59:29.732Z,21.41
2019-05-02T20:01:30.880Z,21.40
2019-05-02T20:03:32.541Z,21.38
2019-05-02T20:05:34.153Z,21.37
2019-05-02T20:07:35.737Z,21.35
2019-05-02T20:09:38.097Z,21.37
2019-05-02T20:11:38.996Z,21.38
2019-05-02T20:13:40.619Z,21.39
2019-05-02T20:15:42.670Z,21.36
2019-05-02T20:17:44.330Z,21.34
2019-05-02T20:19:45.944Z,21.29
2019-05-02T20:21:48.130Z,21.24
2019-05-02T20:23:49.716Z,21.18
2019-05-02T20:25:52.225Z,21.14
2019-05-02T20:27:52.976Z,21.11
2019-05-02T20:29:54.600Z,21.07
2019-05-02T20:31:56.188Z,21.02
2019-05-02T20:33:57.776Z,20.99
2019-05-02T20:35:59.345Z,20.95
2019-05-02T20:38:01.650Z,20.92
2019-05-02T20:40:02.886Z,20.88
2019-05-02T20:42:04.330Z,20.87
2019-05-02T20:44:05.952Z,20.86
2019-05-02T20:46:07.561Z,20.83
2019-05-02T20:48:09.151Z,20.81
2019-05-02T20:50:12.075Z,20.79
2019-05-02T20:52:12.432Z,20.77
2019-05-02T20:54:14.066Z,20.75
2019-05-02T20:56:15.678Z,21.30
2019-05-02T20:58:17.269Z,21.72
2019-05-02T21:00:18.843Z,21.84
2019-05-02T21:02:20.448Z,21.90
2019-05-02T21:04:22.815Z,21.77
2019-05-02T21:06:37.419Z,21.75
2019-05-02T21:08:28.464Z,21.74
2019-05-02T21:10:30.058Z,22.03
2019-05-02T21:12:31.680Z,22.34
2019-05-02T21:14:33.267Z,22.39
2019-05-02T21:16:34.880Z,22.46
2019-05-02T21:18:36.500Z,22.32
2019-05-02T21:20:38.079Z,22.32
2019-05-02T21:22:39.706Z,22.51
2019-05-02T21:24:42.080Z,22.32
2019-05-02T21:26:42.989Z,22.47
2019-05-02T21:28:46.183Z,22.49
2019-05-02T21:30:46.252Z,22.51
2019-05-02T21:32:47.854Z,22.53
2019-05-02T21:34:49.441Z,22.54
2019-05-02T21:36:51.854Z,22.55
2019-05-02T21:38:52.668Z,22.66
2019-05-02T21:40:54.267Z,22.73
2019-05-02T21:42:55.883Z,22.79
2019-05-02T21:44:57.496Z,22.76
2019-05-02T21:46:59.083Z,22.87
2019-05-02T21:49:00.699Z,22.97
2019-05-02T21:51:03.076Z,23.03
2019-05-02T21:53:06.493Z,22.98
2019-05-02T21:55:08.100Z,22.98
2019-05-02T21:57:09.688Z,22.88
2019-05-02T21:59:12.101Z,23.02
2019-05-02T22:01:13.109Z,23.06
2019-05-02T22:03:14.660Z,22.98
2019-05-02T22:05:16.244Z,22.92
2019-05-02T22:07:17.856Z,22.93
2019-05-02T22:09:19.449Z,22.80
2019-05-02T22:11:22.600Z,22.79
2019-05-02T22:13:22.752Z,22.92
2019-05-02T22:15:24.340Z,22.95
2019-05-02T22:17:25.939Z,22.96
2019-05-02T22:19:27.534Z,23.06
2019-05-02T22:21:29.171Z,23.01
2019-05-02T22:23:33.518Z,22.98
2019-05-02T22:25:32.727Z,22.91
2019-05-02T22:27:34.015Z,23.04
2019-05-02T22:29:35.603Z,23.14
2019-05-02T22:31:37.212Z,22.93
2019-05-02T22:33:38.828Z,22.87
2019-05-02T22:35:43.117Z,22.82
2019-05-02T22:37:42.097Z,23.05
2019-05-02T22:39:45.444Z,22.98
2019-05-02T22:41:47.079Z,23.11
2019-05-02T22:43:48.687Z,22.98
2019-05-02T22:45:50.282Z,22.86
2019-05-02T22:47:52.094Z,22.84
2019-05-02T22:49:53.498Z,22.93
2019-05-02T22:51:55.102Z,22.52
2019-05-02T22:53:56.699Z,22.13
2019-05-02T22:55:58.303Z,22.26
2019-05-02T22:57:59.892Z,22.28
2019-05-02T23:00:01.976Z,22.25
2019-05-02T23:02:03.126Z,22.21
2019-05-02T23:04:04.748Z,22.15
2019-05-02T23:06:06.334Z,22.10
2019-05-02T23:08:08.134Z,22.04
2019-05-02T23:10:09.723Z,21.98
2019-05-02T23:12:13.044Z,21.94
2019-05-02T23:14:12.980Z,21.89
2019-05-02T23:16:14.592Z,21.83
2019-05-02T23:18:16.245Z,21.79
2019-05-02T23:20:17.855Z,21.75
2019-05-02T23:22:19.431Z,21.72
2019-05-02T23:24:38.666Z,21.71
2019-05-02T23:26:40.047Z,21.71
2019-05-02T23:28:42.483Z,21.73
2019-05-02T23:30:44.070Z,21.72
2019-05-02T23:32:45.662Z,21.72
2019-05-02T23:34:47.283Z,21.71
2019-05-02T23:36:48.884Z,21.72
2019-05-02T23:38:52.210Z,21.73
2019-05-02T23:40:52.607Z,21.70
2019-05-02T23:42:53.796Z,21.69
2019-05-02T23:44:55.420Z,21.69
2019-05-02T23:46:56.995Z,21.69
2019-05-02T23:48:58.582Z,21.70
2019-05-02T23:51:00.183Z,21.67
2019-05-02T23:53:02.346Z,21.64
2019-05-02T23:55:03.471Z,21.62
2019-05-02T23:57:05.057Z,21.61
2019-05-02T23:59:06.660Z,21.64
